createdAt,value
2023-01-13T00:02:18.426Z,9.60
2023-01-13T00:05:07.426Z,9.60
2023-01-13T00:07:56.920Z,9.60
2023-01-13T00:10:48.306Z,9.60
2023-01-13T00:13:38.211Z,9.80
2023-01-13T00:16:26.400Z,9.60
2023-01-13T00:19:14.622Z,9.60
2023-01-13T00:22:02.760Z,9.60
2023-01-13T00:24:52.254Z,9.60
2023-01-13T00:27:40.770Z,9.60
2023-01-13T00:30:28.926Z,9.60
2023-01-13T00:33:17.049Z,9.60
2023-01-13T00:36:06.862Z,9.60
2023-01-13T00:38:55.132Z,9.60
2023-01-13T00:42:01.229Z,9.60
2023-01-13T00:44:49.331Z,9.60
2023-01-13T00:47:37.440Z,9.60
2023-01-13T00:50:25.537Z,9.60
2023-01-13T00:53:15.008Z,9.60
2023-01-13T00:56:04.076Z,9.50
2023-01-13T00:58:53.746Z,9.60
2023-01-13T01:01:42.750Z,9.50
2023-01-13T01:04:30.959Z,9.60
2023-01-13T01:07:19.112Z,9.60
2023-01-13T01:10:08.094Z,9.60
2023-01-13T01:12:56.215Z,9.60
2023-01-13T01:15:47.853Z,9.70
2023-01-13T01:18:37.095Z,9.70
2023-01-13T01:21:27.636Z,9.70
2023-01-13T01:24:16.787Z,9.60
2023-01-13T01:27:05.029Z,9.70
2023-01-13T01:29:53.250Z,9.70
2023-01-13T01:32:42.764Z,9.70
2023-01-13T01:35:30.858Z,9.70
2023-01-13T01:38:18.944Z,9.70
2023-01-13T01:41:07.433Z,9.70
2023-01-13T01:44:07.312Z,9.70
2023-01-13T01:46:56.760Z,9.70
2023-01-13T01:49:47.664Z,9.70
2023-01-13T01:52:38.845Z,9.70
2023-01-13T01:55:30.906Z,9.70
2023-01-13T01:58:22.727Z,9.80
2023-01-13T02:01:11.300Z,9.80
2023-01-13T02:04:12.600Z,9.80
2023-01-13T02:07:03.310Z,9.80
2023-01-13T02:09:52.765Z,9.70
2023-01-13T02:12:43.094Z,9.70
2023-01-13T02:15:39.262Z,9.80
2023-01-13T02:18:41.911Z,9.80
2023-01-13T02:21:49.127Z,9.80
2023-01-13T02:25:08.231Z,9.80
2023-01-13T02:28:06.436Z,9.90
2023-01-13T02:31:18.754Z,9.90
2023-01-13T02:34:11.305Z,9.90
2023-01-13T02:37:04.209Z,9.80
2023-01-13T02:39:58.517Z,9.80
2023-01-13T02:43:10.277Z,9.70
2023-01-13T02:46:04.498Z,9.40
2023-01-13T02:48:55.770Z,9.10
2023-01-13T02:51:46.960Z,8.90
2023-01-13T02:54:37.132Z,8.80
2023-01-13T02:57:27.543Z,8.60
2023-01-13T03:00:17.905Z,8.50
2023-01-13T03:03:07.234Z,8.30
2023-01-13T03:06:01.585Z,8.30
2023-01-13T03:08:53.855Z,8.30
2023-01-13T03:11:52.098Z,8.30
2023-01-13T03:14:48.174Z,8.20
2023-01-13T03:17:43.066Z,8.10
2023-01-13T03:20:36.976Z,8.00
2023-01-13T03:23:32.538Z,8.20
2023-01-13T03:26:30.706Z,8.00
2023-01-13T03:29:22.537Z,8.00
2023-01-13T03:32:15.093Z,7.90
2023-01-13T03:35:10.247Z,7.90
2023-01-13T03:38:04.611Z,8.00
2023-01-13T03:40:55.842Z,7.90
2023-01-13T03:44:07.866Z,7.90
2023-01-13T03:47:03.926Z,7.90
2023-01-13T03:49:57.813Z,7.90
2023-01-13T03:52:49.351Z,7.90
2023-01-13T03:55:42.324Z,7.80
2023-01-13T03:58:33.918Z,7.80
2023-01-13T04:01:25.855Z,7.90
2023-01-13T04:04:20.554Z,7.90
2023-01-13T04:07:19.491Z,7.90
2023-01-13T04:10:10.943Z,7.80
2023-01-13T04:13:05.156Z,7.70
2023-01-13T04:15:53.490Z,7.70
2023-01-13T04:18:41.785Z,7.60
2023-01-13T04:21:30.550Z,7.60
2023-01-13T04:24:18.585Z,7.70
2023-01-13T04:27:06.605Z,7.60
2023-01-13T04:29:55.939Z,7.70
2023-01-13T04:32:43.964Z,7.60
2023-01-13T04:35:32.250Z,7.60
2023-01-13T04:38:22.387Z,7.60
2023-01-13T04:41:10.480Z,7.60
2023-01-13T04:43:58.713Z,7.50
2023-01-13T04:46:48.359Z,7.50
2023-01-13T04:49:36.461Z,7.60
2023-01-13T04:52:24.821Z,7.60
2023-01-13T04:55:12.891Z,7.60
2023-01-13T04:58:04.328Z,7.60
2023-01-13T05:00:53.037Z,7.50
2023-01-13T05:03:42.969Z,7.50
2023-01-13T05:06:31.539Z,7.50
2023-01-13T05:09:19.774Z,7.40
2023-01-13T05:12:25.935Z,7.50
2023-01-13T05:15:33.183Z,7.50
2023-01-13T05:18:21.407Z,7.50
2023-01-13T05:21:30.729Z,7.70
2023-01-13T05:24:41.496Z,7.60
2023-01-13T05:27:30.130Z,7.50
2023-01-13T05:30:19.170Z,7.50
2023-01-13T05:33:07.128Z,7.40
2023-01-13T05:35:55.115Z,7.40
2023-01-13T05:38:44.479Z,7.30
2023-01-13T05:41:49.896Z,7.30
2023-01-13T05:44:37.908Z,7.30
2023-01-13T05:47:25.850Z,7.30
2023-01-13T05:50:13.913Z,7.30
2023-01-13T05:53:01.899Z,7.30
2023-01-13T05:55:52.013Z,7.40
2023-01-13T05:58:40.290Z,7.30
2023-01-13T06:01:28.269Z,7.40
2023-01-13T06:04:16.248Z,7.40
2023-01-13T06:07:04.334Z,7.40
2023-01-13T06:09:52.877Z,7.40
2023-01-13T06:12:42.191Z,7.30
2023-01-13T06:15:30.283Z,7.30
2023-01-13T06:18:19.036Z,7.30
2023-01-13T06:21:07.204Z,7.30
2023-01-13T06:23:55.191Z,7.30
2023-01-13T06:26:43.193Z,7.30
2023-01-13T06:29:32.769Z,7.20
2023-01-13T06:32:24.840Z,7.30
2023-01-13T06:35:16.456Z,7.30
2023-01-13T06:38:08.507Z,7.30
2023-01-13T06:40:56.620Z,7.30
2023-01-13T06:43:43.674Z,7.20
2023-01-13T06:46:33.137Z,7.30
2023-01-13T06:49:21.788Z,7.20
2023-01-13T06:52:09.857Z,7.20
2023-01-13T06:54:58.081Z,7.20
2023-01-13T06:57:50.789Z,7.20
2023-01-13T07:00:38.895Z,7.20
2023-01-13T07:03:28.236Z,7.20
2023-01-13T07:06:16.181Z,7.20
2023-01-13T07:09:06.016Z,7.20
2023-01-13T07:11:54.807Z,7.20
2023-01-13T07:15:00.238Z,7.20
2023-01-13T07:17:48.274Z,7.20
2023-01-13T07:20:37.745Z,7.30
2023-01-13T07:23:26.610Z,7.30
2023-01-13T07:26:16.187Z,7.30
2023-01-13T07:29:04.241Z,7.20
2023-01-13T07:31:52.219Z,7.20
2023-01-13T07:34:40.323Z,7.20
2023-01-13T07:37:29.598Z,7.30
2023-01-13T07:40:18.265Z,7.20
2023-01-13T07:43:23.744Z,7.20
2023-01-13T07:46:11.872Z,7.20
2023-01-13T07:48:59.858Z,7.20
2023-01-13T07:51:47.851Z,7.30
2023-01-13T07:54:41.076Z,7.30
2023-01-13T07:57:29.269Z,7.30
2023-01-13T08:00:18.486Z,7.30
2023-01-13T08:03:06.489Z,7.20
2023-01-13T08:05:54.503Z,7.20
2023-01-13T08:08:42.511Z,7.20
2023-01-13T08:11:31.840Z,7.20
2023-01-13T08:14:19.826Z,7.10
2023-01-13T08:17:09.020Z,7.10
2023-01-13T08:19:57.034Z,7.10
2023-01-13T08:22:45.330Z,7.10
2023-01-13T08:25:33.496Z,7.10
2023-01-13T08:28:24.099Z,7.10
2023-01-13T08:31:16.047Z,7.00
2023-01-13T08:34:04.408Z,7.20
2023-01-13T08:36:52.419Z,7.10
2023-01-13T08:39:40.402Z,7.10
2023-01-13T08:42:28.440Z,7.20
2023-01-13T08:45:17.953Z,7.20
2023-01-13T08:48:06.223Z,7.30
2023-01-13T08:50:54.843Z,7.30
2023-01-13T08:53:42.947Z,7.30
2023-01-13T08:56:35.027Z,7.30
2023-01-13T08:59:23.403Z,7.40
2023-01-13T09:02:16.070Z,7.30
2023-01-13T09:05:07.074Z,7.30
2023-01-13T09:07:55.116Z,7.30
2023-01-13T09:10:43.137Z,7.30
2023-01-13T09:13:30.077Z,7.30
2023-01-13T09:16:18.184Z,7.30
2023-01-13T09:19:07.510Z,7.30
2023-01-13T09:21:55.835Z,7.30
2023-01-13T09:24:43.824Z,7.30
2023-01-13T09:27:31.825Z,7.40
2023-01-13T09:30:20.031Z,7.40
2023-01-13T09:33:25.461Z,7.40
2023-01-13T09:36:14.769Z,7.40
2023-01-13T09:39:02.734Z,7.40
2023-01-13T09:42:12.280Z,7.40
2023-01-13T09:45:05.870Z,7.40
2023-01-13T09:47:58.344Z,7.40
2023-01-13T09:50:54.902Z,7.40
2023-01-13T09:53:49.170Z,7.40
2023-01-13T09:56:37.451Z,7.40
2023-01-13T09:59:28.453Z,7.50
2023-01-13T10:02:40.458Z,7.50
2023-01-13T10:05:36.012Z,7.50
2023-01-13T10:08:26.208Z,7.50
2023-01-13T10:11:35.778Z,7.60
2023-01-13T10:14:28.230Z,7.60
2023-01-13T10:17:23.825Z,7.70
2023-01-13T10:20:19.211Z,7.70
2023-01-13T10:23:17.217Z,7.70
2023-01-13T10:26:13.454Z,7.80
2023-01-13T10:29:03.191Z,7.80
2023-01-13T10:31:51.507Z,7.80
2023-01-13T10:34:48.597Z,7.70
2023-01-13T10:37:36.564Z,7.80
2023-01-13T10:40:25.694Z,7.80
2023-01-13T10:43:13.704Z,7.80
2023-01-13T10:46:06.700Z,7.90
2023-01-13T10:48:56.715Z,7.80
2023-01-13T10:51:45.695Z,7.80
2023-01-13T10:54:52.184Z,7.80
2023-01-13T10:57:40.169Z,7.80
2023-01-13T11:00:30.082Z,7.90
2023-01-13T11:03:21.866Z,7.90
2023-01-13T11:06:19.606Z,7.90
2023-01-13T11:09:20.223Z,7.90
2023-01-13T11:12:31.108Z,7.90
2023-01-13T11:15:23.006Z,7.90
2023-01-13T11:18:19.398Z,7.80
2023-01-13T11:21:18.596Z,7.80
2023-01-13T11:24:13.573Z,7.70
2023-01-13T11:27:05.603Z,7.70
2023-01-13T11:30:09.587Z,7.70
2023-01-13T11:33:27.724Z,7.70
2023-01-13T11:36:21.199Z,7.70
2023-01-13T11:39:18.576Z,7.80
2023-01-13T11:42:24.074Z,7.90
2023-01-13T11:45:19.861Z,7.90
2023-01-13T11:48:15.234Z,7.90
2023-01-13T11:51:10.555Z,8.00
2023-01-13T11:54:27.955Z,7.90
2023-01-13T11:57:47.016Z,7.90
2023-01-13T12:00:43.661Z,7.90
2023-01-13T12:03:35.627Z,7.90
2023-01-13T12:06:32.909Z,7.90
2023-01-13T12:09:41.515Z,8.00
2023-01-13T12:12:40.765Z,8.10
2023-01-13T12:16:05.625Z,8.10
2023-01-13T12:19:11.362Z,8.10
2023-01-13T12:22:08.630Z,8.10
2023-01-13T12:25:05.237Z,8.10
2023-01-13T12:28:00.101Z,8.10
2023-01-13T12:30:52.083Z,8.00
2023-01-13T12:34:01.444Z,8.00
2023-01-13T12:36:58.584Z,8.00
2023-01-13T12:39:57.052Z,8.00
2023-01-13T12:43:11.299Z,8.00
2023-01-13T12:46:32.812Z,7.90
2023-01-13T12:49:29.840Z,7.70
2023-01-13T12:52:19.935Z,7.50
2023-01-13T12:55:16.765Z,7.50
2023-01-13T12:58:17.941Z,7.50
2023-01-13T13:01:13.328Z,7.60
2023-01-13T13:04:09.886Z,7.60
2023-01-13T13:07:09.486Z,7.70
2023-01-13T13:10:01.491Z,7.80
2023-01-13T13:13:13.455Z,7.90
2023-01-13T13:16:43.451Z,8.00
2023-01-13T13:19:49.878Z,8.00
2023-01-13T13:22:43.378Z,8.00
2023-01-13T13:25:31.453Z,8.00
2023-01-13T13:28:23.112Z,8.00
2023-01-13T13:31:38.071Z,8.00
2023-01-13T13:34:33.653Z,8.10
2023-01-13T13:37:59.877Z,8.00
2023-01-13T13:41:06.783Z,8.10
2023-01-13T13:44:12.611Z,8.10
2023-01-13T13:47:03.303Z,8.10
2023-01-13T13:49:54.409Z,8.10
2023-01-13T13:52:51.478Z,8.10
2023-01-13T13:55:39.526Z,8.10
2023-01-13T13:58:29.361Z,8.10
2023-01-13T14:01:25.337Z,8.20
2023-01-13T14:04:18.735Z,8.10
2023-01-13T14:07:18.304Z,8.10
2023-01-13T14:10:13.376Z,8.10
2023-01-13T14:13:03.595Z,8.10
2023-01-13T14:15:57.948Z,8.20
2023-01-13T14:18:48.605Z,8.30
2023-01-13T14:21:36.660Z,8.30
2023-01-13T14:24:25.136Z,8.40
2023-01-13T14:27:18.903Z,8.40
2023-01-13T14:30:13.109Z,8.50
2023-01-13T14:33:01.935Z,8.50
2023-01-13T14:36:07.489Z,8.40
2023-01-13T14:39:27.055Z,8.40
2023-01-13T14:42:18.097Z,8.40
2023-01-13T14:45:24.842Z,8.30
2023-01-13T14:48:15.583Z,8.10
2023-01-13T14:51:05.934Z,7.90
2023-01-13T14:53:54.456Z,7.80
2023-01-13T14:56:53.827Z,7.60
2023-01-13T14:59:48.732Z,7.50
2023-01-13T15:02:42.800Z,7.40
2023-01-13T15:05:47.254Z,7.40
2023-01-13T15:08:40.395Z,7.40
2023-01-13T15:11:30.076Z,7.40
2023-01-13T15:14:23.878Z,7.40
2023-01-13T15:17:17.703Z,7.40
2023-01-13T15:20:13.724Z,7.40
2023-01-13T15:23:01.757Z,7.40
2023-01-13T15:25:50.603Z,7.40
2023-01-13T15:28:39.357Z,7.40
2023-01-13T15:31:28.294Z,7.40
2023-01-13T15:34:17.676Z,7.40
2023-01-13T15:37:05.754Z,7.40
2023-01-13T15:39:53.709Z,7.40
2023-01-13T15:42:58.969Z,7.40
2023-01-13T15:46:05.584Z,7.40
2023-01-13T15:48:54.951Z,7.40
2023-01-13T15:51:44.450Z,7.40
2023-01-13T15:54:32.505Z,7.40
2023-01-13T15:57:23.998Z,7.40
2023-01-13T16:00:16.950Z,7.40
2023-01-13T16:03:05.427Z,7.50
2023-01-13T16:05:53.445Z,7.50
2023-01-13T16:08:42.838Z,7.60
2023-01-13T16:11:30.850Z,7.60
2023-01-13T16:14:18.849Z,7.60
2023-01-13T16:17:15.431Z,7.60
2023-01-13T16:20:03.409Z,7.60
2023-01-13T16:22:51.559Z,7.50
2023-01-13T16:25:43.664Z,7.50
2023-01-13T16:28:31.848Z,7.40
2023-01-13T16:31:25.260Z,7.40
2023-01-13T16:34:13.273Z,7.40
2023-01-13T16:37:01.530Z,7.40
2023-01-13T16:39:49.536Z,7.50
2023-01-13T16:42:38.847Z,7.50
2023-01-13T16:45:26.932Z,7.40
2023-01-13T16:48:20.732Z,7.50
2023-01-13T16:51:08.686Z,7.50
2023-01-13T16:53:56.709Z,7.50
2023-01-13T16:56:45.219Z,7.50
2023-01-13T16:59:34.636Z,7.40
2023-01-13T17:02:22.687Z,7.50
2023-01-13T17:05:12.398Z,7.50
2023-01-13T17:08:00.465Z,7.40
2023-01-13T17:10:48.468Z,7.30
2023-01-13T17:13:36.484Z,7.30
2023-01-13T17:16:26.642Z,7.30
2023-01-13T17:19:15.306Z,7.20
2023-01-13T17:22:03.302Z,7.10
2023-01-13T17:24:51.293Z,7.10
2023-01-13T17:27:39.378Z,7.00
2023-01-13T17:30:27.364Z,7.10
2023-01-13T17:33:16.781Z,7.00
2023-01-13T17:36:05.900Z,7.00
2023-01-13T17:38:53.975Z,6.90
2023-01-13T17:41:41.902Z,6.80
2023-01-13T17:44:29.897Z,6.70
2023-01-13T17:47:17.987Z,6.60
2023-01-13T17:50:07.961Z,6.60
2023-01-13T17:52:56.009Z,6.60
2023-01-13T17:55:50.914Z,6.60
2023-01-13T17:58:41.415Z,6.60
2023-01-13T18:01:32.857Z,6.60
2023-01-13T18:04:22.704Z,6.70
2023-01-13T18:07:12.295Z,6.70
2023-01-13T18:10:00.325Z,6.80
2023-01-13T18:12:48.397Z,6.70
2023-01-13T18:15:36.694Z,6.80
2023-01-13T18:18:24.703Z,6.60
2023-01-13T18:21:49.175Z,6.80
2023-01-13T18:25:04.381Z,6.80
2023-01-13T18:27:52.341Z,6.80
2023-01-13T18:30:40.419Z,6.70
2023-01-13T18:33:28.430Z,6.70
2023-01-13T18:36:16.443Z,6.80
2023-01-13T18:39:04.785Z,6.80
2023-01-13T18:42:11.837Z,6.90
2023-01-13T18:44:59.857Z,6.90
2023-01-13T18:47:47.815Z,6.90
2023-01-13T18:50:36.599Z,6.90
2023-01-13T18:53:25.126Z,7.00
2023-01-13T18:56:14.370Z,6.90
2023-01-13T18:59:04.658Z,7.00
2023-01-13T19:01:53.179Z,7.00
2023-01-13T19:04:42.024Z,7.00
2023-01-13T19:07:31.768Z,7.10
2023-01-13T19:10:19.966Z,7.10
2023-01-13T19:13:07.960Z,7.10
2023-01-13T19:15:57.371Z,7.10
2023-01-13T19:18:45.471Z,7.10
2023-01-13T19:21:33.437Z,7.10
2023-01-13T19:24:22.112Z,7.10
2023-01-13T19:27:10.326Z,7.10
2023-01-13T19:30:01.226Z,7.20
2023-01-13T19:32:52.708Z,7.20
2023-01-13T19:35:40.636Z,7.10
2023-01-13T19:38:29.247Z,7.10
2023-01-13T19:41:31.125Z,7.00
2023-01-13T19:44:36.943Z,6.90
2023-01-13T19:47:24.968Z,6.90
2023-01-13T19:50:16.408Z,6.90
2023-01-13T19:53:04.471Z,6.90
2023-01-13T19:55:52.445Z,6.80
2023-01-13T19:58:40.462Z,6.90
2023-01-13T20:01:31.915Z,6.90
2023-01-13T20:04:27.091Z,7.00
2023-01-13T20:07:16.434Z,6.90
2023-01-13T20:10:04.684Z,7.00
2023-01-13T20:12:52.620Z,6.90
2023-01-13T20:15:41.653Z,6.90
2023-01-13T20:18:35.620Z,6.80
2023-01-13T20:21:23.884Z,6.80
2023-01-13T20:24:17.474Z,6.80
2023-01-13T20:27:06.094Z,6.80
2023-01-13T20:29:54.285Z,6.80
2023-01-13T20:32:42.661Z,6.90
2023-01-13T20:35:30.635Z,6.90
2023-01-13T20:38:18.603Z,6.90
2023-01-13T20:41:22.586Z,6.80
2023-01-13T20:44:11.544Z,6.80
2023-01-13T20:46:59.619Z,6.70
2023-01-13T20:49:47.780Z,6.80
2023-01-13T20:52:36.981Z,6.90
2023-01-13T20:55:24.934Z,6.80
2023-01-13T20:58:14.404Z,6.80
2023-01-13T21:01:02.831Z,6.70
2023-01-13T21:03:50.891Z,6.70
2023-01-13T21:06:39.033Z,6.70
2023-01-13T21:09:27.559Z,6.60
2023-01-13T21:12:33.965Z,6.60
2023-01-13T21:15:23.406Z,6.60
2023-01-13T21:18:28.768Z,6.60
2023-01-13T21:21:16.812Z,6.60
2023-01-13T21:24:05.909Z,6.70
2023-01-13T21:26:56.804Z,6.60
2023-01-13T21:29:45.052Z,6.70
2023-01-13T21:32:34.393Z,6.70
2023-01-13T21:35:22.354Z,6.70
2023-01-13T21:38:12.185Z,6.70
2023-01-13T21:41:02.484Z,6.70
2023-01-13T21:44:07.870Z,6.70
2023-01-13T21:47:13.321Z,6.80
2023-01-13T21:50:03.459Z,6.80
2023-01-13T21:52:52.695Z,6.80
2023-01-13T21:55:41.615Z,6.80
2023-01-13T21:58:29.880Z,6.90
2023-01-13T22:01:17.950Z,6.90
2023-01-13T22:04:15.244Z,6.90
2023-01-13T22:07:06.447Z,6.90
2023-01-13T22:09:54.799Z,6.90
2023-01-13T22:12:43.328Z,7.00
2023-01-13T22:15:33.167Z,7.00
2023-01-13T22:18:21.116Z,7.00
2023-01-13T22:21:09.567Z,7.00
2023-01-13T22:24:00.073Z,7.10
2023-01-13T22:26:48.135Z,7.10
2023-01-13T22:29:37.687Z,7.10
2023-01-13T22:32:25.803Z,7.10
2023-01-13T22:35:15.196Z,7.20
2023-01-13T22:38:03.158Z,7.10
2023-01-13T22:40:58.877Z,7.10
2023-01-13T22:43:46.938Z,7.00
2023-01-13T22:46:35.024Z,7.00
2023-01-13T22:49:23.214Z,7.00
2023-01-13T22:52:11.245Z,7.00
2023-01-13T22:55:00.778Z,7.10
2023-01-13T22:57:50.118Z,7.10
2023-01-13T23:00:38.346Z,7.10
2023-01-13T23:03:26.371Z,7.20
2023-01-13T23:06:14.755Z,7.20
2023-01-13T23:09:02.924Z,7.20
2023-01-13T23:11:51.444Z,7.20
2023-01-13T23:14:41.028Z,7.20
2023-01-13T23:17:29.094Z,7.20
2023-01-13T23:20:18.258Z,7.10
2023-01-13T23:23:06.301Z,7.10
2023-01-13T23:25:56.426Z,7.10
2023-01-13T23:28:44.776Z,7.10
2023-01-13T23:31:34.612Z,7.10
2023-01-13T23:34:22.720Z,7.10
2023-01-13T23:37:10.689Z,7.10
2023-01-13T23:39:58.692Z,7.10
2023-01-13T23:42:46.644Z,7.10
2023-01-13T23:45:34.621Z,7.00
2023-01-13T23:48:23.920Z,7.10
2023-01-13T23:51:13.450Z,7.10
2023-01-13T23:54:01.521Z,7.10
2023-01-13T23:56:52.489Z,7.10
2023-01-13T23:59:40.697Z,7.00
